Time;durP1;ratioP1;P1;durP2;ratioP2;P2;SDS_P1;SDS_P2;PMS_P1;PMS_P2;Temp;Humidity;BMP_temperature;BMP_pressure;BME280_temperature;BME280_humidity;BME280_pressure;Samples;Min_cycle;Max_cycle;Signal;HPM_P1;HPM_P2
2021/06/04 00:02:17;;;;;;;5.13;4.73;;;22.10;93.40;;;;;;5031081;28;20689;-55
2021/06/04 00:04:43;;;;;;;5.80;5.40;;;22.10;93.40;;;;;;5031917;28;20675;-54
2021/06/04 00:07:10;;;;;;;5.67;5.17;;;22.10;93.80;;;;;;5031364;28;20725;-54
2021/06/04 00:09:37;;;;;;;7.07;6.53;;;22.00;93.40;;;;;;5032070;28;20631;-55
2021/06/04 00:12:04;;;;;;;7.30;6.70;;;22.00;93.60;;;;;;5040872;28;20698;-55
2021/06/04 00:14:34;;;;;;;6.23;5.63;;;22.00;93.60;;;;;;5048993;28;20631;-55
2021/06/04 00:17:03;;;;;;;7.00;6.50;;;22.00;93.70;;;;;;5031623;28;20627;-54
2021/06/04 00:19:32;;;;;;;6.00;5.50;;;21.90;93.80;;;;;;5030328;28;20638;-55
2021/06/04 00:22:00;;;;;;;6.37;5.87;;;21.90;93.90;;;;;;5030048;28;20677;-54
2021/06/04 00:24:27;;;;;;;5.83;5.33;;;21.90;94.00;;;;;;5028925;28;20659;-54
2021/06/04 00:26:54;;;;;;;6.80;6.30;;;21.80;94.00;;;;;;5028767;28;20650;-55
2021/06/04 00:29:21;;;;;;;5.63;5.10;;;21.80;94.00;;;;;;5029074;28;20631;-53
2021/06/04 00:31:49;;;;;;;6.50;5.30;;;21.80;94.10;;;;;;5028844;28;21032;-54
2021/06/04 00:34:17;;;;;;;5.10;4.70;;;21.80;94.20;;;;;;5027775;28;20627;-54
2021/06/04 00:36:44;;;;;;;6.30;5.90;;;21.70;94.10;;;;;;5029870;28;20980;-54
2021/06/04 00:39:11;;;;;;;6.07;5.57;;;21.80;94.20;;;;;;5031330;28;20788;-54
2021/06/04 00:41:39;;;;;;;7.23;6.63;;;21.70;94.20;;;;;;5031245;28;20623;-54
2021/06/04 00:44:06;;;;;;;6.33;5.80;;;21.70;94.20;;;;;;5031279;28;20724;-54
2021/06/04 00:46:33;;;;;;;7.33;6.70;;;21.70;94.20;;;;;;5031876;28;20661;-54
2021/06/04 00:49:00;;;;;;;6.43;5.93;;;21.60;94.40;;;;;;5035322;28;20651;-54
2021/06/04 00:51:31;;;;;;;6.67;5.80;;;21.50;94.50;;;;;;5035378;28;20619;-53
2021/06/04 00:53:58;;;;;;;7.30;6.00;;;21.50;94.50;;;;;;5035153;28;21055;-53
2021/06/04 00:56:26;;;;;;;6.23;5.73;;;21.50;94.50;;;;;;5033948;28;20669;-52
2021/06/04 00:58:53;;;;;;;7.93;7.37;;;21.50;94.60;;;;;;5034708;28;21039;-54
2021/06/04 01:01:21;;;;;;;7.17;6.57;;;21.40;94.50;;;;;;5035237;28;20623;-53
2021/06/04 01:03:50;;;;;;;8.30;7.60;;;21.40;94.70;;;;;;5034643;28;20655;-55
2021/06/04 01:06:22;;;;;;;7.23;6.73;;;21.30;94.80;;;;;;5034648;28;20627;-54
2021/06/04 01:09:03;;;;;;;7.67;7.10;;;21.30;95.10;;;;;;5034469;28;21036;-54
2021/06/04 01:11:36;;;;;;;7.97;7.37;;;21.20;95.10;;;;;;5034644;28;20662;-54
2021/06/04 01:14:06;;;;;;;6.70;6.27;;;21.20;95.40;;;;;;5033822;28;20658;-53
2021/06/04 01:16:36;;;;;;;8.27;7.47;;;21.20;95.60;;;;;;5027875;28;21193;-52
2021/06/04 01:19:29;;;;;;;8.60;7.83;;;21.20;95.50;;;;;;5032505;28;20622;-54
2021/06/04 01:21:57;;;;;;;7.03;6.53;;;21.20;95.30;;;;;;5033409;28;20607;-54
2021/06/04 01:24:36;;;;;;;7.77;7.23;;;21.20;95.60;;;;;;5032981;28;20650;-55
2021/06/04 01:27:06;;;;;;;8.37;7.70;;;21.20;95.80;;;;;;5032513;28;21183;-55
2021/06/04 01:29:36;;;;;;;8.87;8.20;;;21.20;95.90;;;;;;5032710;28;20730;-54
2021/06/04 01:32:05;;;;;;;8.00;7.40;;;21.20;95.90;;;;;;5032645;28;20682;-53
2021/06/04 01:34:33;;;;;;;8.67;7.87;;;21.20;95.80;;;;;;5030375;28;21203;-54
2021/06/04 01:37:03;;;;;;;8.47;7.83;;;21.20;95.80;;;;;;5032093;28;21179;-53
2021/06/04 01:39:33;;;;;;;8.47;7.70;;;21.20;95.90;;;;;;5031561;28;21163;-53
2021/06/04 01:42:01;;;;;;;7.83;7.13;;;21.10;96.00;;;;;;5031373;28;20669;-54
2021/06/04 01:44:31;;;;;;;8.07;7.37;;;21.10;96.00;;;;;;5034229;28;20635;-54
2021/06/04 01:47:01;;;;;;;7.53;6.93;;;21.10;96.20;;;;;;5033515;28;20631;-53
2021/06/04 01:49:30;;;;;;;7.70;7.20;;;21.10;96.30;;;;;;5034302;28;20733;-54
2021/06/04 01:51:59;;;;;;;8.53;7.80;;;21.10;96.30;;;;;;5033708;28;20671;-54
2021/06/04 01:54:27;;;;;;;9.43;8.73;;;21.00;96.30;;;;;;5034272;28;21001;-54
2021/06/04 01:56:56;;;;;;;9.30;8.70;;;21.00;96.30;;;;;;5033510;28;21036;-54
2021/06/04 01:59:25;;;;;;;9.17;8.47;;;20.90;96.30;;;;;;5032492;28;20619;-54
2021/06/04 02:01:53;;;;;;;8.13;7.43;;;20.90;96.50;;;;;;5033707;28;20627;-53
2021/06/04 02:04:24;;;;;;;9.43;8.60;;;20.80;96.60;;;;;;5034107;28;20693;-54
2021/06/04 02:06:51;;;;;;;9.23;8.53;;;20.80;96.60;;;;;;5033168;28;21191;-54
2021/06/04 02:09:19;;;;;;;9.13;8.43;;;20.70;96.70;;;;;;5033849;28;20708;-53
2021/06/04 02:11:46;;;;;;;10.30;9.43;;;20.70;96.70;;;;;;5033267;28;20619;-54
2021/06/04 02:14:14;;;;;;;8.93;8.20;;;20.80;96.80;;;;;;5031707;28;20669;-54
2021/06/04 02:16:49;;;;;;;9.10;8.43;;;20.70;96.60;;;;;;5032638;28;20630;-54
2021/06/04 02:19:23;;;;;;;8.63;8.03;;;20.70;96.70;;;;;;5032721;28;21037;-54
2021/06/04 02:21:53;;;;;;;10.30;9.50;;;20.70;96.80;;;;;;5033835;28;20623;-52
2021/06/04 02:24:23;;;;;;;9.87;9.10;;;20.70;96.90;;;;;;5033086;28;21186;-53
2021/06/04 02:26:52;;;;;;;10.23;9.37;;;20.70;96.90;;;;;;5028112;28;20639;-53
2021/06/04 02:29:22;;;;;;;10.90;10.10;;;20.70;96.90;;;;;;5028290;28;21079;-54
2021/06/04 02:31:51;;;;;;;10.67;9.87;;;20.70;96.90;;;;;;5029344;28;20626;-53
2021/06/04 02:34:20;;;;;;;10.60;9.80;;;20.60;96.90;;;;;;5033044;28;21004;-54
2021/06/04 02:36:50;;;;;;;12.57;11.57;;;20.60;97.10;;;;;;5033016;28;20639;-55
2021/06/04 02:39:19;;;;;;;12.20;11.30;;;20.60;97.10;;;;;;5033340;28;21063;-55
2021/06/04 02:41:47;;;;;;;12.00;11.10;;;20.60;97.20;;;;;;5032575;28;20635;-54
2021/06/04 02:44:15;;;;;;;13.40;12.27;;;20.50;97.30;;;;;;5045325;22;20710;-49
2021/06/04 02:46:43;;;;;;;15.37;13.87;;;20.50;97.40;;;;;;5031376;28;20635;-49
2021/06/04 02:49:12;;;;;;;13.60;12.47;;;20.50;97.80;;;;;;5030877;28;20654;-49
2021/06/04 02:51:52;;;;;;;16.50;15.03;;;20.50;97.80;;;;;;5031423;28;20631;-50
2021/06/04 02:54:20;;;;;;;16.87;14.67;;;20.50;98.00;;;;;;5031186;28;20670;-49
2021/06/04 02:56:48;;;;;;;16.20;14.80;;;20.50;98.00;;;;;;5030801;28;20623;-49
2021/06/04 02:59:16;;;;;;;15.73;14.20;;;20.50;97.90;;;;;;5031065;28;20622;-50
2021/06/04 03:01:45;;;;;;;14.20;12.97;;;20.50;98.00;;;;;;5030912;28;20619;-50
2021/06/04 03:04:14;;;;;;;15.27;13.87;;;20.50;98.00;;;;;;5030891;28;20674;-50
2021/06/04 03:06:44;;;;;;;16.40;13.00;;;20.60;98.10;;;;;;5030494;28;20631;-49
2021/06/04 03:09:14;;;;;;;12.43;11.33;;;20.70;98.10;;;;;;5030452;28;20659;-49
2021/06/04 03:11:41;;;;;;;12.27;11.27;;;20.70;98.00;;;;;;5030718;28;20622;-49
2021/06/04 03:14:08;;;;;;;13.40;12.30;;;20.70;98.00;;;;;;5030890;28;20724;-48
2021/06/04 03:16:35;;;;;;;12.90;11.80;;;20.80;97.90;;;;;;5030395;28;20623;-48
2021/06/04 03:19:04;;;;;;;11.50;10.60;;;20.80;97.80;;;;;;5029921;28;20697;-48
2021/06/04 03:21:33;;;;;;;11.90;10.90;;;20.70;97.60;;;;;;5030905;28;20635;-49
2021/06/04 03:24:02;;;;;;;12.07;10.80;;;20.70;97.60;;;;;;5027923;28;20658;-49
2021/06/04 03:26:29;;;;;;;9.13;8.43;;;20.70;98.10;;;;;;5027402;28;20627;-49
2021/06/04 03:28:57;;;;;;;10.17;9.37;;;20.70;97.90;;;;;;5028150;28;20651;-49
2021/06/04 03:31:25;;;;;;;11.23;10.13;;;20.70;97.90;;;;;;5028644;28;20627;-49
2021/06/04 03:33:52;;;;;;;10.43;9.50;;;20.80;97.90;;;;;;5026106;28;20716;-50
2021/06/04 03:36:23;;;;;;;10.70;9.80;;;20.80;97.70;;;;;;5028122;28;20635;-50
2021/06/04 03:38:50;;;;;;;9.70;8.83;;;20.80;97.70;;;;;;5025240;28;20623;-49
2021/06/04 03:41:19;;;;;;;9.50;8.80;;;20.80;97.70;;;;;;5030062;28;20700;-49
2021/06/04 03:43:47;;;;;;;8.57;7.97;;;20.80;97.70;;;;;;5030023;28;20659;-50
2021/06/04 03:46:14;;;;;;;9.80;9.10;;;20.80;97.70;;;;;;5028319;28;21190;-51
2021/06/04 03:48:41;;;;;;;9.37;8.50;;;20.90;97.70;;;;;;5030518;28;21255;-50
2021/06/04 03:51:12;;;;;;;8.10;7.50;;;20.80;97.60;;;;;;5029861;28;20634;-50
2021/06/04 03:53:39;;;;;;;8.27;7.67;;;20.90;97.60;;;;;;5030252;28;20720;-51
2021/06/04 03:56:06;;;;;;;7.80;7.30;;;20.90;97.60;;;;;;5030069;28;20700;-49
2021/06/04 03:58:34;;;;;;;7.60;7.10;;;20.90;97.60;;;;;;5030087;28;21049;-48
2021/06/04 04:01:04;;;;;;;9.03;8.23;;;20.90;97.60;;;;;;5029404;28;20674;-48
2021/06/04 04:03:31;;;;;;;7.40;6.80;;;20.90;97.50;;;;;;5030117;28;20748;-49
2021/06/04 04:05:57;;;;;;;8.83;8.03;;;21.00;97.60;;;;;;5030000;28;21191;-48
2021/06/04 04:08:26;;;;;;;7.20;6.70;;;21.00;97.50;;;;;;5029872;28;20659;-49
2021/06/04 04:10:52;;;;;;;7.80;7.30;;;21.00;97.40;;;;;;5030427;28;20658;-50
2021/06/04 04:13:20;;;;;;;8.83;6.47;;;21.10;97.40;;;;;;5030108;28;20720;-50
2021/06/04 04:15:48;;;;;;;8.17;7.10;;;21.10;97.40;;;;;;5029126;28;20623;-49
2021/06/04 04:18:15;;;;;;;8.07;7.27;;;21.10;97.40;;;;;;5028430;28;20619;-49
2021/06/04 04:20:43;;;;;;;8.90;8.00;;;21.10;97.40;;;;;;5028343;28;20663;-49
2021/06/04 04:23:11;;;;;;;8.80;8.20;;;21.10;97.40;;;;;;5029392;28;20651;-49
2021/06/04 04:25:40;;;;;;;9.90;9.10;;;21.10;97.30;;;;;;5029273;28;20631;-49
2021/06/04 04:28:08;;;;;;;9.70;9.00;;;21.20;97.30;;;;;;5028266;28;20709;-49
2021/06/04 04:30:35;;;;;;;11.87;8.80;;;21.20;97.30;;;;;;5030542;28;20627;-49
2021/06/04 04:33:03;;;;;;;8.70;8.10;;;21.20;97.30;;;;;;5030095;28;20813;-49
2021/06/04 04:35:31;;;;;;;9.10;8.40;;;21.20;97.30;;;;;;5030519;28;21244;-49
2021/06/04 04:37:58;;;;;;;10.63;9.77;;;21.20;97.30;;;;;;5030202;28;21249;-50
2021/06/04 04:40:26;;;;;;;9.87;9.17;;;21.20;97.30;;;;;;5029502;28;20955;-50
2021/06/04 04:42:53;;;;;;;10.60;9.70;;;21.20;97.20;;;;;;5028794;28;20678;-49
2021/06/04 04:45:21;;;;;;;9.80;9.07;;;21.20;97.60;;;;;;5037161;28;20676;-50
2021/06/04 04:47:48;;;;;;;10.37;9.27;;;21.20;97.20;;;;;;5049647;28;20642;-50
2021/06/04 04:50:16;;;;;;;10.57;9.57;;;21.20;97.30;;;;;;5049343;28;20662;-49
2021/06/04 04:52:43;;;;;;;10.43;9.63;;;21.20;97.40;;;;;;5036335;28;21215;-51
2021/06/04 04:55:11;;;;;;;10.57;9.73;;;21.30;97.70;;;;;;5029823;28;20681;-48
2021/06/04 04:57:38;;;;;;;9.33;8.57;;;21.30;97.30;;;;;;5029628;28;20677;-51
2021/06/04 05:00:05;;;;;;;9.70;9.00;;;21.30;97.30;;;;;;5029717;28;20708;-49
2021/06/04 05:02:32;;;;;;;9.50;8.70;;;21.30;97.20;;;;;;5029260;28;20655;-50
2021/06/04 05:04:59;;;;;;;9.80;9.00;;;21.30;97.20;;;;;;5029705;28;20742;-55
2021/06/04 05:07:27;;;;;;;12.57;11.57;;;21.40;97.30;;;;;;5029003;28;20631;-49
2021/06/04 05:09:55;;;;;;;10.23;9.33;;;21.40;97.30;;;;;;5029616;28;20709;-50
2021/06/04 05:12:22;;;;;;;9.90;9.20;;;21.40;97.30;;;;;;5029846;28;20634;-49
2021/06/04 05:14:48;;;;;;;9.43;8.67;;;21.40;97.40;;;;;;5029553;28;20626;-50
2021/06/04 05:17:15;;;;;;;9.77;8.87;;;21.40;97.40;;;;;;5029440;28;20676;-50
2021/06/04 05:19:45;;;;;;;9.70;8.80;;;21.40;97.40;;;;;;5030005;28;20676;-55
2021/06/04 05:22:12;;;;;;;9.37;8.67;;;21.50;97.30;;;;;;5029258;28;20669;-50
2021/06/04 05:24:40;;;;;;;9.93;9.20;;;21.50;97.30;;;;;;5029632;28;20677;-50
2021/06/04 05:27:07;;;;;;;10.97;10.17;;;21.60;97.40;;;;;;5029008;28;21048;-50
2021/06/04 05:29:34;;;;;;;12.00;11.00;;;21.60;97.30;;;;;;5029545;28;20659;-50
2021/06/04 05:32:00;;;;;;;10.57;9.67;;;21.60;97.30;;;;;;5029478;28;20653;-49
2021/06/04 05:34:27;;;;;;;11.20;10.30;;;21.60;97.60;;;;;;5032525;28;20663;-49
2021/06/04 05:36:54;;;;;;;14.83;11.50;;;21.70;97.30;;;;;;5032649;28;20692;-49
2021/06/04 05:39:22;;;;;;;10.87;10.17;;;21.60;97.20;;;;;;5033012;28;20646;-49
2021/06/04 05:41:54;;;;;;;10.40;9.60;;;21.60;97.30;;;;;;5032726;28;20627;-49
2021/06/04 05:44:22;;;;;;;11.87;10.87;;;21.70;97.40;;;;;;5032617;28;20662;-49
2021/06/04 05:46:50;;;;;;;11.97;11.07;;;21.70;97.30;;;;;;5032549;28;20619;-50
2021/06/04 05:49:17;;;;;;;9.83;8.93;;;21.70;97.20;;;;;;5032732;28;21277;-50
2021/06/04 05:51:44;;;;;;;9.70;8.83;;;21.70;97.30;;;;;;5032499;28;20700;-50
2021/06/04 05:54:10;;;;;;;9.80;9.00;;;21.70;97.30;;;;;;5032571;28;20670;-49
2021/06/04 05:56:37;;;;;;;10.90;9.90;;;21.70;97.20;;;;;;5032314;28;20685;-50
2021/06/04 05:59:05;;;;;;;9.63;8.93;;;21.70;97.20;;;;;;5032697;28;20642;-50
2021/06/04 06:01:34;;;;;;;8.13;7.53;;;21.80;97.30;;;;;;5032198;28;20684;-49
2021/06/04 06:04:01;;;;;;;8.20;7.60;;;21.80;97.10;;;;;;5032346;28;20689;-49
2021/06/04 06:06:28;;;;;;;7.53;6.97;;;21.80;96.90;;;;;;5032285;28;20619;-49
2021/06/04 06:08:54;;;;;;;8.50;7.90;;;21.80;96.90;;;;;;5032579;28;20667;-50
2021/06/04 06:11:25;;;;;;;8.47;7.87;;;21.80;96.90;;;;;;5032722;28;20776;-50
2021/06/04 06:13:51;;;;;;;10.53;9.53;;;21.80;96.90;;;;;;5032132;28;20670;-50
2021/06/04 06:16:20;;;;;;;9.87;8.80;;;21.80;96.90;;;;;;5031483;28;20627;-51
2021/06/04 06:18:46;;;;;;;8.70;8.00;;;21.90;96.80;;;;;;5032210;28;20623;-50
2021/06/04 06:21:13;;;;;;;8.20;7.50;;;21.90;96.70;;;;;;5032149;28;20697;-49
2021/06/04 06:23:41;;;;;;;8.90;8.10;;;21.90;96.60;;;;;;5031847;28;20689;-50
2021/06/04 06:26:09;;;;;;;8.40;7.80;;;22.00;96.30;;;;;;5031883;28;21132;-50
2021/06/04 06:28:37;;;;;;;8.60;7.83;;;22.00;96.10;;;;;;5031814;28;20619;-50
2021/06/04 06:31:04;;;;;;;9.50;8.80;;;22.00;96.00;;;;;;5030597;28;20734;-50
2021/06/04 06:33:32;;;;;;;10.80;9.90;;;22.00;96.00;;;;;;5031991;28;20651;-49
2021/06/04 06:36:00;;;;;;;11.60;10.53;;;22.00;96.00;;;;;;5031755;28;20680;-50
2021/06/04 06:38:28;;;;;;;11.03;10.27;;;22.00;96.20;;;;;;5030777;28;20676;-49
2021/06/04 06:40:55;;;;;;;9.53;8.87;;;22.00;96.00;;;;;;5032245;28;20784;-49
2021/06/04 06:43:23;;;;;;;9.93;9.13;;;22.00;96.20;;;;;;5031694;28;20748;-50
2021/06/04 06:45:50;;;;;;;10.07;9.20;;;22.00;96.20;;;;;;5031246;28;20651;-50
2021/06/04 06:48:17;;;;;;;10.10;9.10;;;22.10;96.10;;;;;;5031932;28;20650;-50
2021/06/04 06:50:45;;;;;;;11.33;8.30;;;22.10;96.00;;;;;;5031664;28;20663;-50
2021/06/04 06:53:12;;;;;;;8.07;7.37;;;22.20;95.80;;;;;;5031327;28;20689;-49
2021/06/04 06:55:40;;;;;;;9.20;8.40;;;22.30;95.50;;;;;;5031614;28;20631;-49
2021/06/04 06:58:07;;;;;;;9.60;8.37;;;22.30;95.50;;;;;;5031589;28;20672;-50
2021/06/04 07:00:36;;;;;;;9.73;9.03;;;22.40;95.60;;;;;;5031878;28;20677;-49
2021/06/04 07:03:03;;;;;;;8.83;8.13;;;22.40;95.50;;;;;;5031885;28;20666;-49
2021/06/04 07:05:30;;;;;;;9.23;8.33;;;22.50;95.80;;;;;;5031461;28;20627;-49
2021/06/04 07:07:58;;;;;;;9.63;8.83;;;22.60;95.40;;;;;;5031348;28;20661;-49
2021/06/04 07:10:26;;;;;;;10.47;9.60;;;22.60;95.00;;;;;;5031288;28;20659;-49
2021/06/04 07:12:53;;;;;;;10.40;9.57;;;22.60;94.80;;;;;;5031252;28;20651;-50
2021/06/04 07:15:20;;;;;;;10.27;8.93;;;22.60;94.80;;;;;;5031645;28;20626;-50
2021/06/04 07:17:47;;;;;;;10.67;9.67;;;22.70;94.90;;;;;;5030999;28;20693;-50
2021/06/04 07:20:15;;;;;;;9.97;9.27;;;22.70;94.90;;;;;;5031444;28;20692;-50
2021/06/04 07:22:42;;;;;;;11.20;9.37;;;22.70;94.90;;;;;;5031458;28;20647;-51
2021/06/04 07:25:15;;;;;;;9.60;8.57;;;22.80;95.00;;;;;;5031084;28;20659;-50
2021/06/04 07:27:42;;;;;;;8.87;8.17;;;22.90;95.00;;;;;;5030754;28;20627;-50
2021/06/04 07:30:11;;;;;;;8.33;7.63;;;23.20;94.80;;;;;;5030962;28;20694;-51
2021/06/04 07:32:38;;;;;;;7.97;7.47;;;23.40;94.50;;;;;;5031518;28;20651;-50
2021/06/04 07:35:05;;;;;;;8.10;7.50;;;23.60;93.90;;;;;;5031009;28;20708;-50
2021/06/04 07:37:32;;;;;;;8.70;8.00;;;23.80;93.20;;;;;;5030987;28;20979;-51
2021/06/04 07:39:59;;;;;;;10.13;9.17;;;24.00;93.00;;;;;;5030872;28;20619;-49
2021/06/04 07:42:28;;;;;;;9.00;7.70;;;24.20;92.20;;;;;;5030803;28;20623;-48
2021/06/04 07:44:54;;;;;;;8.60;7.93;;;24.30;92.00;;;;;;5030860;28;21152;-49
2021/06/04 07:47:21;;;;;;;8.53;7.93;;;24.40;91.90;;;;;;5030601;28;21159;-49
2021/06/04 07:49:48;;;;;;;9.83;7.80;;;24.60;91.60;;;;;;5029984;28;20659;-50
2021/06/04 07:52:15;;;;;;;9.73;8.80;;;24.80;91.30;;;;;;5030378;28;20819;-50
2021/06/04 07:54:41;;;;;;;9.83;9.00;;;25.00;91.00;;;;;;5030326;28;20689;-51
2021/06/04 07:57:08;;;;;;;9.77;8.97;;;25.20;90.40;;;;;;5030407;28;21218;-51
2021/06/04 07:59:36;;;;;;;8.53;7.83;;;25.20;90.30;;;;;;5030852;28;20675;-52
2021/06/04 08:02:03;;;;;;;8.53;7.90;;;25.40;90.00;;;;;;5030483;28;20696;-52
2021/06/04 08:04:30;;;;;;;8.23;7.53;;;25.50;89.60;;;;;;5029847;28;20725;-51
2021/06/04 08:06:57;;;;;;;8.80;7.90;;;25.70;89.10;;;;;;5029762;28;20668;-51
2021/06/04 08:09:23;;;;;;;7.67;6.83;;;25.90;88.60;;;;;;5028228;28;21123;-51
2021/06/04 08:11:55;;;;;;;9.10;7.40;;;26.10;87.50;;;;;;5030380;28;20961;-51
2021/06/04 08:14:23;;;;;;;8.30;7.53;;;26.30;86.10;;;;;;5030194;28;20724;-50
2021/06/04 08:16:53;;;;;;;7.33;6.80;;;26.50;83.50;;;;;;5029219;28;21178;-50
2021/06/04 08:19:20;;;;;;;7.50;6.90;;;26.50;83.00;;;;;;5029617;28;20619;-49
2021/06/04 08:21:48;;;;;;;6.43;5.80;;;26.50;81.80;;;;;;5029303;28;20697;-49
2021/06/04 08:24:16;;;;;;;7.97;6.27;;;26.70;81.10;;;;;;5029898;28;20663;-50
2021/06/04 08:26:43;;;;;;;8.40;7.07;;;26.90;79.30;;;;;;5029980;28;20627;-50
2021/06/04 08:29:10;;;;;;;5.80;5.30;;;27.00;78.00;;;;;;5028526;28;20654;-51
2021/06/04 08:31:37;;;;;;;5.93;5.43;;;27.20;76.10;;;;;;5030532;28;20627;-50
2021/06/04 08:34:05;;;;;;;6.93;6.33;;;27.10;75.00;;;;;;5030511;28;20792;-51
2021/06/04 08:36:33;;;;;;;6.73;6.10;;;26.90;74.50;;;;;;5030056;28;20689;-50
2021/06/04 08:39:02;;;;;;;5.90;5.43;;;26.70;75.50;;;;;;5029962;28;20635;-51
2021/06/04 08:41:34;;;;;;;5.47;4.97;;;26.60;76.10;;;;;;5030344;28;20684;-50
2021/06/04 08:44:29;;;;;;;6.67;6.10;;;26.70;75.90;;;;;;5030518;28;20670;-50
2021/06/04 08:47:00;;;;;;;5.87;5.37;;;26.80;75.40;;;;;;5027039;28;20638;-50
2021/06/04 08:49:31;;;;;;;6.20;5.70;;;26.80;74.90;;;;;;5029609;28;21061;-50
2021/06/04 08:52:12;;;;;;;6.70;6.20;;;26.90;74.60;;;;;;5030321;28;20627;-50
2021/06/04 08:54:42;;;;;;;6.50;5.90;;;27.00;74.20;;;;;;5030175;28;21061;-51
2021/06/04 08:57:12;;;;;;;5.50;5.10;;;27.00;74.10;;;;;;5029658;28;20673;-51
2021/06/04 08:59:39;;;;;;;5.60;5.13;;;27.00;73.30;;;;;;5030220;28;20676;-51
2021/06/04 09:02:07;;;;;;;6.80;5.23;;;27.00;73.00;;;;;;5030026;28;20708;-50
2021/06/04 09:04:37;;;;;;;5.63;5.23;;;26.90;73.30;;;;;;5030206;28;20658;-51
2021/06/04 09:07:06;;;;;;;5.87;5.43;;;26.90;73.40;;;;;;5029577;28;20975;-50
2021/06/04 09:09:36;;;;;;;5.33;4.93;;;26.90;73.30;;;;;;5034017;28;20720;-51
2021/06/04 09:12:05;;;;;;;5.80;5.30;;;26.90;73.10;;;;;;5033652;28;21052;-51
2021/06/04 09:14:32;;;;;;;5.90;5.40;;;27.00;73.00;;;;;;5033662;28;20712;-51
2021/06/04 09:17:26;;;;;;;5.73;5.23;;;27.00;73.50;;;;;;5033331;28;21220;-50
2021/06/04 09:19:58;;;;;;;5.77;5.27;;;27.00;73.60;;;;;;5033594;28;20983;-51
2021/06/04 09:22:25;;;;;;;6.40;5.90;;;26.90;74.60;;;;;;5033193;28;20979;-51
2021/06/04 09:24:52;;;;;;;6.23;5.03;;;26.90;75.20;;;;;;5033866;28;20635;-51
2021/06/04 09:27:32;;;;;;;6.00;5.60;;;26.80;75.80;;;;;;5032837;28;21031;-50
2021/06/04 09:30:24;;;;;;;6.07;5.53;;;27.00;76.20;;;;;;5033046;28;20681;-51
2021/06/04 09:33:09;;;;;;;5.37;4.70;;;27.40;74.40;;;;;;5027720;28;20678;-51
2021/06/04 09:35:39;;;;;;;4.50;4.10;;;27.80;70.70;;;;;;5033271;28;20704;-51
2021/06/04 09:38:15;;;;;;;5.50;5.10;;;27.70;67.90;;;;;;5032845;28;20630;-51
2021/06/04 09:40:42;;;;;;;5.23;4.87;;;27.90;68.40;;;;;;5031547;28;20641;-51
2021/06/04 09:43:15;;;;;;;5.13;4.70;;;28.20;67.50;;;;;;5032811;28;21304;-51
2021/06/04 09:45:52;;;;;;;5.63;4.87;;;28.50;65.40;;;;;;5033011;28;20684;-50
2021/06/04 09:48:32;;;;;;;7.40;4.67;;;28.50;64.90;;;;;;5031804;28;20657;-51
2021/06/04 09:51:10;;;;;;;5.63;5.23;;;28.40;64.70;;;;;;5032945;28;20654;-51
2021/06/04 09:53:36;;;;;;;4.53;4.13;;;28.20;64.10;;;;;;5032852;28;20673;-51
2021/06/04 09:56:17;;;;;;;6.63;4.53;;;28.00;63.60;;;;;;5032592;28;20618;-51
2021/06/04 09:58:50;;;;;;;3.87;3.67;;;27.70;63.70;;;;;;5033176;28;21037;-51
2021/06/04 10:01:17;;;;;;;4.10;3.80;;;27.60;64.00;;;;;;5032311;28;20718;-51
2021/06/04 10:03:56;;;;;;;5.13;3.60;;;27.40;64.80;;;;;;5032387;28;21028;-51
2021/06/04 10:06:44;;;;;;;5.23;4.73;;;27.30;65.90;;;;;;5032224;28;20653;-51
2021/06/04 10:09:27;;;;;;;4.57;4.20;;;27.20;66.40;;;;;;5032378;28;20669;-51
2021/06/04 10:11:59;;;;;;;5.20;4.73;;;27.10;66.80;;;;;;5020175;28;20642;-51
2021/06/04 10:14:35;;;;;;;4.60;4.30;;;27.00;67.40;;;;;;5032214;28;21000;-51
2021/06/04 10:17:26;;;;;;;6.60;4.10;;;27.00;67.40;;;;;;5031893;28;20685;-51
2021/06/04 10:19:53;;;;;;;5.10;4.07;;;27.00;67.30;;;;;;5030867;28;21012;-51
2021/06/04 10:22:31;;;;;;;5.30;4.60;;;27.10;66.40;;;;;;5032058;28;20654;-51
2021/06/04 10:25:17;;;;;;;6.50;4.97;;;27.20;66.00;;;;;;5032093;28;20692;-51
2021/06/04 10:27:45;;;;;;;4.37;3.97;;;27.20;66.40;;;;;;5031632;28;20634;-50
2021/06/04 10:30:14;;;;;;;4.37;4.07;;;27.10;64.70;;;;;;5031817;28;20647;-50
2021/06/04 10:32:42;;;;;;;4.53;4.23;;;27.10;64.70;;;;;;5031716;28;21051;-50
2021/06/04 10:35:12;;;;;;;7.73;3.90;;;27.10;64.10;;;;;;5032067;28;20627;-50
2021/06/04 10:37:44;;;;;;;4.03;3.73;;;27.20;62.20;;;;;;5031867;28;20631;-50
2021/06/04 10:40:15;;;;;;;3.97;3.77;;;27.30;62.10;;;;;;5032372;28;20701;-51
2021/06/04 10:42:49;;;;;;;4.17;3.77;;;27.40;61.90;;;;;;5031704;28;20805;-50
2021/06/04 10:45:18;;;;;;;4.80;4.40;;;27.50;61.50;;;;;;5031239;28;20702;-50
2021/06/04 10:48:12;;;;;;;3.60;3.30;;;27.60;61.80;;;;;;5031077;28;20622;-50
2021/06/04 10:50:40;;;;;;;5.10;4.80;;;27.80;61.90;;;;;;5029243;28;21112;-50
2021/06/04 10:53:13;;;;;;;5.03;4.50;;;28.00;60.50;;;;;;5031418;28;20724;-51
2021/06/04 10:55:43;;;;;;;5.03;4.63;;;27.90;60.50;;;;;;5031348;28;21205;-50
2021/06/04 10:58:19;;;;;;;5.10;4.70;;;27.90;60.70;;;;;;5031201;28;20654;-51
2021/06/04 11:00:48;;;;;;;5.60;5.00;;;27.90;61.10;;;;;;5031900;28;20623;-51
2021/06/04 11:03:17;;;;;;;5.90;4.17;;;27.80;62.40;;;;;;5031292;28;21240;-51
2021/06/04 11:05:52;;;;;;;5.00;4.60;;;27.80;61.50;;;;;;5031513;28;20733;-50
2021/06/04 11:08:38;;;;;;;4.77;4.37;;;27.90;61.20;;;;;;5031086;28;21013;-50
2021/06/04 11:11:11;;;;;;;4.93;4.63;;;28.00;60.30;;;;;;5031198;28;20954;-50
2021/06/04 11:13:40;;;;;;;5.13;4.70;;;28.00;59.70;;;;;;5030893;28;20662;-50
2021/06/04 11:16:12;;;;;;;4.87;4.47;;;27.90;60.40;;;;;;5030654;28;20661;-50
2021/06/04 11:18:41;;;;;;;4.60;4.30;;;27.80;60.70;;;;;;5031127;28;20653;-50
2021/06/04 11:21:16;;;;;;;4.53;4.10;;;27.70;60.60;;;;;;5031060;28;20683;-50
2021/06/04 11:23:46;;;;;;;4.60;4.30;;;27.70;61.70;;;;;;5030848;28;20713;-50
2021/06/04 11:26:15;;;;;;;4.70;4.30;;;28.00;59.70;;;;;;5030738;28;20657;-50
2021/06/04 11:28:44;;;;;;;4.40;4.10;;;28.10;59.20;;;;;;5030975;28;20680;-50
2021/06/04 11:31:17;;;;;;;4.40;4.00;;;28.20;58.90;;;;;;5030302;28;20666;-50
2021/06/04 11:33:46;;;;;;;5.23;3.70;;;28.20;58.70;;;;;;5030730;28;20787;-49
2021/06/04 11:36:14;;;;;;;5.90;4.30;;;28.10;58.00;;;;;;5030831;28;20639;-50
2021/06/04 11:38:42;;;;;;;4.10;3.80;;;28.20;57.70;;;;;;5030600;28;20626;-50
2021/06/04 11:41:14;;;;;;;4.37;3.97;;;28.20;57.00;;;;;;5030477;28;21180;-50
2021/06/04 11:43:42;;;;;;;4.70;4.30;;;28.40;56.50;;;;;;5030519;28;21105;-49
2021/06/04 11:46:23;;;;;;;4.43;4.00;;;28.30;56.40;;;;;;5030512;28;21045;-50
2021/06/04 11:49:00;;;;;;;5.90;4.07;;;28.30;55.80;;;;;;5030859;28;20981;-50
2021/06/04 11:51:33;;;;;;;4.50;3.60;;;28.40;55.30;;;;;;5030444;28;21012;-50
2021/06/04 11:54:24;;;;;;;3.80;3.50;;;28.60;55.10;;;;;;5030477;28;20711;-50
2021/06/04 11:56:57;;;;;;;3.73;3.43;;;28.90;54.50;;;;;;5030208;28;20689;-51
2021/06/04 11:59:52;;;;;;;5.40;3.97;;;29.20;53.70;;;;;;5030283;28;20638;-51
2021/06/04 12:02:39;;;;;;;5.63;3.30;;;29.20;53.30;;;;;;5030311;28;20701;-50
2021/06/04 12:05:38;;;;;;;5.47;4.97;;;29.20;53.30;;;;;;5030103;28;20638;-50
2021/06/04 12:08:44;;;;;;;4.47;4.07;;;29.20;53.10;;;;;;5024386;28;20689;-51
2021/06/04 12:11:35;;;;;;;4.83;4.50;;;29.10;52.80;;;;;;5030181;28;20756;-51
2021/06/04 12:14:20;;;;;;;4.70;4.30;;;29.10;52.80;;;;;;5030335;28;20862;-50
2021/06/04 12:17:14;;;;;;;5.90;4.20;;;29.10;52.60;;;;;;5030121;28;20635;-50
2021/06/04 12:19:41;;;;;;;8.93;4.20;;;29.20;52.20;;;;;;5030334;28;21187;-50
2021/06/04 12:22:10;;;;;;;6.30;5.10;;;29.40;51.80;;;;;;5030253;28;21031;-50
2021/06/04 12:25:01;;;;;;;3.87;3.60;;;29.60;51.10;;;;;;5029853;28;21183;-49
2021/06/04 12:28:02;;;;;;;3.90;3.70;;;29.70;50.30;;;;;;5030002;28;20654;-49
2021/06/04 12:30:54;;;;;;;4.30;3.77;;;29.70;49.80;;;;;;5029992;28;21288;-49
2021/06/04 12:33:47;;;;;;;3.80;3.50;;;29.60;49.30;;;;;;5029727;28;20721;-49
2021/06/04 12:36:35;;;;;;;3.10;2.90;;;29.50;49.40;;;;;;5029604;28;20627;-49
2021/06/04 12:39:36;;;;;;;4.93;3.60;;;29.50;48.90;;;;;;5030015;28;20634;-49
2021/06/04 12:42:05;;;;;;;3.97;2.93;;;29.50;47.60;;;;;;5029427;28;20626;-50
2021/06/04 12:44:32;;;;;;;3.77;2.60;;;29.70;46.10;;;;;;5033396;28;20982;-49
2021/06/04 12:47:00;;;;;;;3.07;2.30;;;29.80;45.40;;;;;;5033129;28;20677;-49
2021/06/04 12:49:27;;;;;;;2.67;2.47;;;30.00;45.40;;;;;;5033530;28;20966;-51
2021/06/04 12:51:54;;;;;;;3.57;2.70;;;30.00;44.20;;;;;;5033365;28;20817;-50
2021/06/04 12:54:22;;;;;;;5.70;3.00;;;30.10;44.40;;;;;;5033535;28;21022;-51
2021/06/04 12:56:50;;;;;;;3.30;3.00;;;30.20;43.90;;;;;;5033534;28;20623;-50
2021/06/04 12:59:20;;;;;;;3.40;2.63;;;30.30;44.50;;;;;;5033602;28;20693;-51
2021/06/04 13:02:03;;;;;;;4.93;3.43;;;30.20;44.40;;;;;;5033125;28;20681;-50